Mount Pleasant, Utah
Current Conditions -  °F | °C
As of 12:53 AM on Friday 28 Nov 2014 (Local Time) from KPUC Reporting Station
Clear Clear  
Wind Chill: 24°   Ceiling: Unl
Heat Index: 31°   Visibility: 10mi
Dew Point: 22°   Wind: 7mph
Humidity: 69%   Direction: 10°N
Pressure: 30.25"   Gusts: NA
Location:  39.55°N, 111.46°W
Report Text: KPUC 280753Z AUTO 01006KT 10SM CLR M01/M06 A3025 RMK AO2 SLP259 T10061056
Loading
Personal Weather Stations






























Interactive Weather Map New forecast layout! Learn more

10-Day Weather Forecast

Advertisements
Track Severe Weather on mobile